sensor_id;sensor_type;location;lat;lon;timestamp;temperature;humidity
28608;DHT22;15802;45.654;13.804;2023-06-10T00:01:12;20.50;99.90
28608;DHT22;15802;45.654;13.804;2023-06-10T00:03:38;20.40;99.90
28608;DHT22;15802;45.654;13.804;2023-06-10T00:06:04;20.50;99.90
28608;DHT22;15802;45.654;13.804;2023-06-10T00:08:30;20.50;99.90
28608;DHT22;15802;45.654;13.804;2023-06-10T00:10:56;20.50;99.90
28608;DHT22;15802;45.654;13.804;2023-06-10T00:13:22;20.40;99.90
28608;DHT22;15802;45.654;13.804;2023-06-10T00:15:48;20.50;99.90
28608;DHT22;15802;45.654;13.804;2023-06-10T00:18:13;20.40;99.90
28608;DHT22;15802;45.654;13.804;2023-06-10T00:20:39;20.40;99.90
28608;DHT22;15802;45.654;13.804;2023-06-10T00:23:06;20.40;99.90
28608;DHT22;15802;45.654;13.804;2023-06-10T00:25:34;20.30;99.90
28608;DHT22;15802;45.654;13.804;2023-06-10T00:28:00;20.30;99.90
28608;DHT22;15802;45.654;13.804;2023-06-10T00:30:26;20.30;99.90
28608;DHT22;15802;45.654;13.804;2023-06-10T00:32:51;20.30;99.90
28608;DHT22;15802;45.654;13.804;2023-06-10T00:35:17;20.30;99.90
28608;DHT22;15802;45.654;13.804;2023-06-10T00:37:43;20.30;99.90
28608;DHT22;15802;45.654;13.804;2023-06-10T00:40:09;20.40;99.90
28608;DHT22;15802;45.654;13.804;2023-06-10T00:42:35;20.30;99.90
28608;DHT22;15802;45.654;13.804;2023-06-10T00:45:00;20.30;99.90
28608;DHT22;15802;45.654;13.804;2023-06-10T00:47:26;20.30;99.90
28608;DHT22;15802;45.654;13.804;2023-06-10T00:49:52;20.30;99.90
28608;DHT22;15802;45.654;13.804;2023-06-10T00:52:18;20.30;99.90
28608;DHT22;15802;45.654;13.804;2023-06-10T00:54:45;20.40;99.90
28608;DHT22;15802;45.654;13.804;2023-06-10T00:57:11;20.30;99.90
28608;DHT22;15802;45.654;13.804;2023-06-10T00:59:38;20.30;99.90
28608;DHT22;15802;45.654;13.804;2023-06-10T01:02:05;20.30;99.90
28608;DHT22;15802;45.654;13.804;2023-06-10T01:04:30;20.30;99.90
28608;DHT22;15802;45.654;13.804;2023-06-10T01:09:44;20.20;99.90
28608;DHT22;15802;45.654;13.804;2023-06-10T01:12:16;20.20;99.90
28608;DHT22;15802;45.654;13.804;2023-06-10T01:14:44;20.10;99.90
28608;DHT22;15802;45.654;13.804;2023-06-10T01:17:11;20.10;99.90
28608;DHT22;15802;45.654;13.804;2023-06-10T01:19:37;20.10;99.90
28608;DHT22;15802;45.654;13.804;2023-06-10T01:22:03;20.00;99.90
28608;DHT22;15802;45.654;13.804;2023-06-10T01:24:29;20.10;99.90
28608;DHT22;15802;45.654;13.804;2023-06-10T01:26:59;20.10;99.90
28608;DHT22;15802;45.654;13.804;2023-06-10T01:29:29;20.00;99.90
28608;DHT22;15802;45.654;13.804;2023-06-10T01:32:04;20.00;99.90
28608;DHT22;15802;45.654;13.804;2023-06-10T01:34:31;20.00;99.90
28608;DHT22;15802;45.654;13.804;2023-06-10T01:36:57;20.00;99.90
28608;DHT22;15802;45.654;13.804;2023-06-10T01:39:23;20.00;99.90
28608;DHT22;15802;45.654;13.804;2023-06-10T01:41:50;19.90;99.90
28608;DHT22;15802;45.654;13.804;2023-06-10T01:44:17;20.00;99.90
28608;DHT22;15802;45.654;13.804;2023-06-10T01:46:43;19.90;99.90
28608;DHT22;15802;45.654;13.804;2023-06-10T01:49:09;19.90;99.90
28608;DHT22;15802;45.654;13.804;2023-06-10T01:51:35;19.90;99.90
28608;DHT22;15802;45.654;13.804;2023-06-10T01:54:01;19.90;99.90
28608;DHT22;15802;45.654;13.804;2023-06-10T01:56:29;19.80;99.90
28608;DHT22;15802;45.654;13.804;2023-06-10T01:58:55;19.80;99.90
28608;DHT22;15802;45.654;13.804;2023-06-10T02:01:25;19.80;99.90
28608;DHT22;15802;45.654;13.804;2023-06-10T02:03:51;19.80;99.90
28608;DHT22;15802;45.654;13.804;2023-06-10T02:06:17;19.70;99.90
28608;DHT22;15802;45.654;13.804;2023-06-10T02:08:42;19.70;99.90
28608;DHT22;15802;45.654;13.804;2023-06-10T02:11:08;19.80;99.90
28608;DHT22;15802;45.654;13.804;2023-06-10T02:13:34;19.80;99.90
28608;DHT22;15802;45.654;13.804;2023-06-10T02:16:00;19.80;99.90
28608;DHT22;15802;45.654;13.804;2023-06-10T02:18:26;19.70;99.90
28608;DHT22;15802;45.654;13.804;2023-06-10T02:20:53;19.70;99.90
28608;DHT22;15802;45.654;13.804;2023-06-10T02:23:19;19.70;99.90
28608;DHT22;15802;45.654;13.804;2023-06-10T02:25:44;19.80;99.90
28608;DHT22;15802;45.654;13.804;2023-06-10T02:28:10;19.70;99.90
28608;DHT22;15802;45.654;13.804;2023-06-10T02:30:38;19.70;99.90
28608;DHT22;15802;45.654;13.804;2023-06-10T02:33:04;19.80;99.90
28608;DHT22;15802;45.654;13.804;2023-06-10T02:35:30;19.70;99.90
28608;DHT22;15802;45.654;13.804;2023-06-10T02:37:56;19.70;99.90
28608;DHT22;15802;45.654;13.804;2023-06-10T02:40:22;19.70;99.90
28608;DHT22;15802;45.654;13.804;2023-06-10T02:42:47;19.60;99.90
28608;DHT22;15802;45.654;13.804;2023-06-10T02:45:13;19.60;99.90
28608;DHT22;15802;45.654;13.804;2023-06-10T02:47:38;19.60;99.90
28608;DHT22;15802;45.654;13.804;2023-06-10T02:50:05;19.60;99.90
28608;DHT22;15802;45.654;13.804;2023-06-10T02:52:31;19.50;99.90
28608;DHT22;15802;45.654;13.804;2023-06-10T02:54:56;19.50;99.90
28608;DHT22;15802;45.654;13.804;2023-06-10T02:57:22;19.40;99.90
28608;DHT22;15802;45.654;13.804;2023-06-10T02:59:48;19.40;99.90
28608;DHT22;15802;45.654;13.804;2023-06-10T03:02:14;19.40;99.90
28608;DHT22;15802;45.654;13.804;2023-06-10T03:04:41;19.40;99.90
28608;DHT22;15802;45.654;13.804;2023-06-10T03:07:09;19.40;99.90
28608;DHT22;15802;45.654;13.804;2023-06-10T03:09:36;19.40;99.90
28608;DHT22;15802;45.654;13.804;2023-06-10T03:12:04;19.40;99.90
28608;DHT22;15802;45.654;13.804;2023-06-10T03:14:31;19.50;99.90
28608;DHT22;15802;45.654;13.804;2023-06-10T03:16:57;19.50;99.90
28608;DHT22;15802;45.654;13.804;2023-06-10T03:19:22;19.50;99.90
28608;DHT22;15802;45.654;13.804;2023-06-10T03:21:49;19.40;99.90
28608;DHT22;15802;45.654;13.804;2023-06-10T03:24:19;19.40;99.90
28608;DHT22;15802;45.654;13.804;2023-06-10T03:26:44;19.50;99.90
28608;DHT22;15802;45.654;13.804;2023-06-10T03:29:10;19.50;99.90
28608;DHT22;15802;45.654;13.804;2023-06-10T03:31:36;19.50;99.90
28608;DHT22;15802;45.654;13.804;2023-06-10T03:34:01;19.50;99.90
28608;DHT22;15802;45.654;13.804;2023-06-10T03:36:27;19.60;99.90
28608;DHT22;15802;45.654;13.804;2023-06-10T03:38:54;19.50;99.90
28608;DHT22;15802;45.654;13.804;2023-06-10T03:41:22;19.50;99.90
28608;DHT22;15802;45.654;13.804;2023-06-10T03:43:48;19.50;99.90
28608;DHT22;15802;45.654;13.804;2023-06-10T03:46:14;19.60;99.90
28608;DHT22;15802;45.654;13.804;2023-06-10T03:48:40;19.60;99.90
28608;DHT22;15802;45.654;13.804;2023-06-10T03:51:05;19.60;99.90
28608;DHT22;15802;45.654;13.804;2023-06-10T03:53:31;19.60;99.90
28608;DHT22;15802;45.654;13.804;2023-06-10T03:55:57;19.60;99.90
28608;DHT22;15802;45.654;13.804;2023-06-10T03:58:23;19.60;99.90
28608;DHT22;15802;45.654;13.804;2023-06-10T04:00:52;19.60;99.90
28608;DHT22;15802;45.654;13.804;2023-06-10T04:03:17;19.70;99.90
28608;DHT22;15802;45.654;13.804;2023-06-10T04:05:43;19.70;99.90
28608;DHT22;15802;45.654;13.804;2023-06-10T04:08:09;19.70;99.90
28608;DHT22;15802;45.654;13.804;2023-06-10T04:10:34;19.80;99.90
28608;DHT22;15802;45.654;13.804;2023-06-10T04:13:00;19.80;99.90
28608;DHT22;15802;45.654;13.804;2023-06-10T04:15:26;19.80;99.90
28608;DHT22;15802;45.654;13.804;2023-06-10T04:17:52;19.80;99.90
28608;DHT22;15802;45.654;13.804;2023-06-10T04:20:18;19.80;99.90
28608;DHT22;15802;45.654;13.804;2023-06-10T04:22:43;19.80;99.90
28608;DHT22;15802;45.654;13.804;2023-06-10T04:25:09;19.90;99.90
28608;DHT22;15802;45.654;13.804;2023-06-10T04:27:35;19.90;99.90
28608;DHT22;15802;45.654;13.804;2023-06-10T04:30:01;20.00;99.90
28608;DHT22;15802;45.654;13.804;2023-06-10T04:32:27;19.90;99.90
28608;DHT22;15802;45.654;13.804;2023-06-10T04:34:52;20.00;99.90
28608;DHT22;15802;45.654;13.804;2023-06-10T04:37:18;20.00;99.90
28608;DHT22;15802;45.654;13.804;2023-06-10T04:39:45;20.00;99.90
28608;DHT22;15802;45.654;13.804;2023-06-10T04:42:11;20.00;99.90
28608;DHT22;15802;45.654;13.804;2023-06-10T04:44:36;20.00;99.90
28608;DHT22;15802;45.654;13.804;2023-06-10T04:47:02;20.00;99.90
28608;DHT22;15802;45.654;13.804;2023-06-10T04:49:28;20.10;99.90
28608;DHT22;15802;45.654;13.804;2023-06-10T04:51:55;20.10;99.90
28608;DHT22;15802;45.654;13.804;2023-06-10T04:54:20;20.10;99.90
28608;DHT22;15802;45.654;13.804;2023-06-10T04:56:46;20.20;99.90
28608;DHT22;15802;45.654;13.804;2023-06-10T04:59:12;20.20;99.90
28608;DHT22;15802;45.654;13.804;2023-06-10T05:01:39;20.20;99.90
28608;DHT22;15802;45.654;13.804;2023-06-10T05:04:05;20.30;99.90
28608;DHT22;15802;45.654;13.804;2023-06-10T05:06:31;20.30;99.90
28608;DHT22;15802;45.654;13.804;2023-06-10T05:08:56;20.30;99.90
28608;DHT22;15802;45.654;13.804;2023-06-10T05:11:22;20.40;99.90
28608;DHT22;15802;45.654;13.804;2023-06-10T05:13:48;20.50;99.90
28608;DHT22;15802;45.654;13.804;2023-06-10T05:16:14;20.50;99.90
28608;DHT22;15802;45.654;13.804;2023-06-10T05:18:40;20.50;99.90
28608;DHT22;15802;45.654;13.804;2023-06-10T05:21:06;20.60;99.90
28608;DHT22;15802;45.654;13.804;2023-06-10T05:23:32;20.60;99.90
28608;DHT22;15802;45.654;13.804;2023-06-10T05:25:58;20.70;99.90
28608;DHT22;15802;45.654;13.804;2023-06-10T05:28:25;20.70;99.90
28608;DHT22;15802;45.654;13.804;2023-06-10T05:30:51;20.70;99.90
28608;DHT22;15802;45.654;13.804;2023-06-10T05:33:16;20.80;99.90
28608;DHT22;15802;45.654;13.804;2023-06-10T05:35:42;20.90;99.90
28608;DHT22;15802;45.654;13.804;2023-06-10T05:38:10;21.00;99.90
28608;DHT22;15802;45.654;13.804;2023-06-10T05:40:36;21.00;99.90
28608;DHT22;15802;45.654;13.804;2023-06-10T05:43:02;21.10;99.90
28608;DHT22;15802;45.654;13.804;2023-06-10T05:45:27;21.10;99.90
28608;DHT22;15802;45.654;13.804;2023-06-10T05:47:53;21.20;99.90
28608;DHT22;15802;45.654;13.804;2023-06-10T05:50:19;21.30;99.90
28608;DHT22;15802;45.654;13.804;2023-06-10T05:52:44;21.40;99.90
28608;DHT22;15802;45.654;13.804;2023-06-10T05:55:10;21.50;99.90
28608;DHT22;15802;45.654;13.804;2023-06-10T05:57:36;21.60;99.90
28608;DHT22;15802;45.654;13.804;2023-06-10T06:00:02;21.70;99.90
28608;DHT22;15802;45.654;13.804;2023-06-10T06:02:27;21.80;99.90
28608;DHT22;15802;45.654;13.804;2023-06-10T06:04:53;21.90;99.90
28608;DHT22;15802;45.654;13.804;2023-06-10T06:07:18;22.00;99.90
28608;DHT22;15802;45.654;13.804;2023-06-10T06:09:46;22.00;99.90
28608;DHT22;15802;45.654;13.804;2023-06-10T06:12:12;22.10;99.90
28608;DHT22;15802;45.654;13.804;2023-06-10T06:14:38;22.20;99.90
28608;DHT22;15802;45.654;13.804;2023-06-10T06:17:05;22.20;99.90
28608;DHT22;15802;45.654;13.804;2023-06-10T06:19:31;22.30;99.90
28608;DHT22;15802;45.654;13.804;2023-06-10T06:21:57;22.40;99.90
28608;DHT22;15802;45.654;13.804;2023-06-10T06:24:22;22.40;99.90
28608;DHT22;15802;45.654;13.804;2023-06-10T06:26:48;22.60;99.90
28608;DHT22;15802;45.654;13.804;2023-06-10T06:29:14;22.60;99.90
28608;DHT22;15802;45.654;13.804;2023-06-10T06:31:39;22.70;99.90
28608;DHT22;15802;45.654;13.804;2023-06-10T06:34:05;22.70;99.90
28608;DHT22;15802;45.654;13.804;2023-06-10T06:36:31;22.80;99.90
28608;DHT22;15802;45.654;13.804;2023-06-10T06:38:56;23.00;99.90
28608;DHT22;15802;45.654;13.804;2023-06-10T06:41:25;23.10;99.90
28608;DHT22;15802;45.654;13.804;2023-06-10T06:43:51;23.00;99.90
28608;DHT22;15802;45.654;13.804;2023-06-10T06:46:17;23.00;99.90
28608;DHT22;15802;45.654;13.804;2023-06-10T06:48:42;23.00;99.90
28608;DHT22;15802;45.654;13.804;2023-06-10T06:51:08;22.90;99.90
28608;DHT22;15802;45.654;13.804;2023-06-10T06:53:34;23.00;99.90
28608;DHT22;15802;45.654;13.804;2023-06-10T06:56:01;23.00;99.90
28608;DHT22;15802;45.654;13.804;2023-06-10T06:58:27;23.00;99.90
28608;DHT22;15802;45.654;13.804;2023-06-10T07:00:53;23.00;99.90
28608;DHT22;15802;45.654;13.804;2023-06-10T07:03:18;23.00;99.90
28608;DHT22;15802;45.654;13.804;2023-06-10T07:05:44;23.00;99.90
28608;DHT22;15802;45.654;13.804;2023-06-10T07:08:10;23.00;99.90
28608;DHT22;15802;45.654;13.804;2023-06-10T07:10:37;23.00;99.90
28608;DHT22;15802;45.654;13.804;2023-06-10T07:13:02;23.10;99.90
28608;DHT22;15802;45.654;13.804;2023-06-10T07:15:28;23.20;99.90
28608;DHT22;15802;45.654;13.804;2023-06-10T07:17:54;23.20;99.90
28608;DHT22;15802;45.654;13.804;2023-06-10T07:20:20;23.30;99.90
28608;DHT22;15802;45.654;13.804;2023-06-10T07:22:46;23.30;99.90
28608;DHT22;15802;45.654;13.804;2023-06-10T07:25:12;23.40;99.90
28608;DHT22;15802;45.654;13.804;2023-06-10T07:27:37;23.50;99.90
28608;DHT22;15802;45.654;13.804;2023-06-10T07:30:04;23.60;99.90
28608;DHT22;15802;45.654;13.804;2023-06-10T07:32:31;23.70;99.90
28608;DHT22;15802;45.654;13.804;2023-06-10T07:34:57;23.80;99.90
28608;DHT22;15802;45.654;13.804;2023-06-10T07:37:23;23.90;99.90
28608;DHT22;15802;45.654;13.804;2023-06-10T07:39:48;23.80;99.90
28608;DHT22;15802;45.654;13.804;2023-06-10T07:42:14;23.80;99.90
28608;DHT22;15802;45.654;13.804;2023-06-10T07:44:40;23.80;99.90
28608;DHT22;15802;45.654;13.804;2023-06-10T07:47:08;23.80;99.90
28608;DHT22;15802;45.654;13.804;2023-06-10T07:49:34;23.80;99.90
28608;DHT22;15802;45.654;13.804;2023-06-10T07:52:00;23.80;99.90
28608;DHT22;15802;45.654;13.804;2023-06-10T07:54:25;23.90;99.90
28608;DHT22;15802;45.654;13.804;2023-06-10T07:56:51;24.00;99.90
28608;DHT22;15802;45.654;13.804;2023-06-10T07:59:18;24.10;99.90
28608;DHT22;15802;45.654;13.804;2023-06-10T08:01:46;24.20;99.90
28608;DHT22;15802;45.654;13.804;2023-06-10T08:04:12;24.30;99.90
28608;DHT22;15802;45.654;13.804;2023-06-10T08:06:37;24.30;99.90
28608;DHT22;15802;45.654;13.804;2023-06-10T08:09:03;24.50;99.90
28608;DHT22;15802;45.654;13.804;2023-06-10T08:11:29;24.50;99.90
28608;DHT22;15802;45.654;13.804;2023-06-10T08:13:55;24.60;99.90
28608;DHT22;15802;45.654;13.804;2023-06-10T08:16:20;24.50;99.90
28608;DHT22;15802;45.654;13.804;2023-06-10T08:18:46;24.50;99.90
28608;DHT22;15802;45.654;13.804;2023-06-10T08:21:12;24.60;99.90
28608;DHT22;15802;45.654;13.804;2023-06-10T08:23:37;24.60;99.90
28608;DHT22;15802;45.654;13.804;2023-06-10T08:26:03;24.50;99.90
28608;DHT22;15802;45.654;13.804;2023-06-10T08:28:29;24.40;99.90
28608;DHT22;15802;45.654;13.804;2023-06-10T08:30:54;24.50;99.90
28608;DHT22;15802;45.654;13.804;2023-06-10T08:33:20;24.60;99.90
28608;DHT22;15802;45.654;13.804;2023-06-10T08:35:45;24.60;99.90
28608;DHT22;15802;45.654;13.804;2023-06-10T08:38:11;24.70;99.90
28608;DHT22;15802;45.654;13.804;2023-06-10T08:40:37;24.70;99.90
28608;DHT22;15802;45.654;13.804;2023-06-10T08:43:05;24.60;99.90
28608;DHT22;15802;45.654;13.804;2023-06-10T08:45:32;24.70;99.90
28608;DHT22;15802;45.654;13.804;2023-06-10T08:48:02;24.70;99.90
28608;DHT22;15802;45.654;13.804;2023-06-10T08:50:29;24.60;99.90
28608;DHT22;15802;45.654;13.804;2023-06-10T08:52:57;24.70;99.90
28608;DHT22;15802;45.654;13.804;2023-06-10T08:55:25;24.60;99.90
28608;DHT22;15802;45.654;13.804;2023-06-10T08:57:52;24.50;99.90
28608;DHT22;15802;45.654;13.804;2023-06-10T09:00:18;24.60;99.90
28608;DHT22;15802;45.654;13.804;2023-06-10T09:02:44;24.60;99.90
28608;DHT22;15802;45.654;13.804;2023-06-10T09:05:10;24.60;99.90
28608;DHT22;15802;45.654;13.804;2023-06-10T09:07:36;24.80;99.90
28608;DHT22;15802;45.654;13.804;2023-06-10T09:10:03;24.90;99.90
28608;DHT22;15802;45.654;13.804;2023-06-10T09:12:30;25.10;99.90
28608;DHT22;15802;45.654;13.804;2023-06-10T09:14:55;25.30;99.90
28608;DHT22;15802;45.654;13.804;2023-06-10T09:17:21;25.20;99.90
28608;DHT22;15802;45.654;13.804;2023-06-10T09:19:47;25.20;99.90
28608;DHT22;15802;45.654;13.804;2023-06-10T09:22:13;25.10;99.90
28608;DHT22;15802;45.654;13.804;2023-06-10T09:24:38;25.10;99.90
28608;DHT22;15802;45.654;13.804;2023-06-10T09:27:05;25.20;99.90
28608;DHT22;15802;45.654;13.804;2023-06-10T09:29:47;25.30;99.90
28608;DHT22;15802;45.654;13.804;2023-06-10T09:32:17;25.30;99.90
28608;DHT22;15802;45.654;13.804;2023-06-10T09:34:43;25.30;99.90
28608;DHT22;15802;45.654;13.804;2023-06-10T09:37:09;25.40;99.90
28608;DHT22;15802;45.654;13.804;2023-06-10T09:39:38;25.40;99.90
28608;DHT22;15802;45.654;13.804;2023-06-10T09:42:15;25.40;99.90
28608;DHT22;15802;45.654;13.804;2023-06-10T09:44:41;25.40;99.90
28608;DHT22;15802;45.654;13.804;2023-06-10T09:47:07;25.30;99.90
28608;DHT22;15802;45.654;13.804;2023-06-10T09:49:32;25.30;99.90
28608;DHT22;15802;45.654;13.804;2023-06-10T09:51:58;25.20;99.90
28608;DHT22;15802;45.654;13.804;2023-06-10T09:54:24;25.20;99.90
28608;DHT22;15802;45.654;13.804;2023-06-10T09:56:56;25.10;99.90
28608;DHT22;15802;45.654;13.804;2023-06-10T09:59:28;25.00;99.90
28608;DHT22;15802;45.654;13.804;2023-06-10T10:01:55;25.10;99.90
28608;DHT22;15802;45.654;13.804;2023-06-10T10:04:24;25.10;99.90
28608;DHT22;15802;45.654;13.804;2023-06-10T10:06:50;25.20;99.90
28608;DHT22;15802;45.654;13.804;2023-06-10T10:09:16;25.40;99.90
28608;DHT22;15802;45.654;13.804;2023-06-10T10:11:42;25.40;99.90
28608;DHT22;15802;45.654;13.804;2023-06-10T10:14:08;25.40;99.90
28608;DHT22;15802;45.654;13.804;2023-06-10T10:16:36;25.50;99.90
28608;DHT22;15802;45.654;13.804;2023-06-10T10:19:05;25.70;99.90
28608;DHT22;15802;45.654;13.804;2023-06-10T10:21:34;25.70;99.90
28608;DHT22;15802;45.654;13.804;2023-06-10T10:24:05;25.80;99.90
28608;DHT22;15802;45.654;13.804;2023-06-10T10:26:33;25.80;99.90
28608;DHT22;15802;45.654;13.804;2023-06-10T10:31:44;26.20;99.90
28608;DHT22;15802;45.654;13.804;2023-06-10T10:34:12;26.30;99.90
28608;DHT22;15802;45.654;13.804;2023-06-10T10:36:38;26.40;99.90
28608;DHT22;15802;45.654;13.804;2023-06-10T10:39:04;26.20;99.90
28608;DHT22;15802;45.654;13.804;2023-06-10T10:41:31;26.30;99.90
28608;DHT22;15802;45.654;13.804;2023-06-10T10:43:57;26.40;99.90
28608;DHT22;15802;45.654;13.804;2023-06-10T10:46:24;26.40;99.90
28608;DHT22;15802;45.654;13.804;2023-06-10T10:48:53;26.50;99.90
28608;DHT22;15802;45.654;13.804;2023-06-10T10:51:23;26.50;99.90
28608;DHT22;15802;45.654;13.804;2023-06-10T10:56:34;26.50;99.90
28608;DHT22;15802;45.654;13.804;2023-06-10T10:59:03;26.50;99.90
28608;DHT22;15802;45.654;13.804;2023-06-10T11:01:39;26.40;99.90
28608;DHT22;15802;45.654;13.804;2023-06-10T11:04:06;26.40;99.90
28608;DHT22;15802;45.654;13.804;2023-06-10T11:06:32;26.40;99.90
28608;DHT22;15802;45.654;13.804;2023-06-10T11:08:57;26.50;99.90
28608;DHT22;15802;45.654;13.804;2023-06-10T11:11:25;26.50;99.90
28608;DHT22;15802;45.654;13.804;2023-06-10T11:14:07;26.50;99.90
28608;DHT22;15802;45.654;13.804;2023-06-10T11:16:39;26.50;99.90
28608;DHT22;15802;45.654;13.804;2023-06-10T11:19:05;26.50;99.90
28608;DHT22;15802;45.654;13.804;2023-06-10T11:21:30;26.50;99.90
28608;DHT22;15802;45.654;13.804;2023-06-10T11:23:57;26.40;99.90
28608;DHT22;15802;45.654;13.804;2023-06-10T11:26:31;26.50;99.90
28608;DHT22;15802;45.654;13.804;2023-06-10T11:29:03;26.50;99.90
28608;DHT22;15802;45.654;13.804;2023-06-10T11:31:29;26.70;99.90
28608;DHT22;15802;45.654;13.804;2023-06-10T11:33:56;26.80;99.90
28608;DHT22;15802;45.654;13.804;2023-06-10T11:36:22;26.80;99.90
28608;DHT22;15802;45.654;13.804;2023-06-10T11:38:49;26.70;99.90
28608;DHT22;15802;45.654;13.804;2023-06-10T11:41:15;26.50;99.90
28608;DHT22;15802;45.654;13.804;2023-06-10T11:43:44;26.70;99.90
28608;DHT22;15802;45.654;13.804;2023-06-10T11:46:10;26.70;99.90
28608;DHT22;15802;45.654;13.804;2023-06-10T11:48:36;26.80;99.90
28608;DHT22;15802;45.654;13.804;2023-06-10T11:51:09;26.90;99.90
28608;DHT22;15802;45.654;13.804;2023-06-10T11:53:34;27.00;99.90
28608;DHT22;15802;45.654;13.804;2023-06-10T11:56:00;26.90;99.90
28608;DHT22;15802;45.654;13.804;2023-06-10T11:58:26;26.90;99.90
28608;DHT22;15802;45.654;13.804;2023-06-10T12:00:52;26.80;99.90
28608;DHT22;15802;45.654;13.804;2023-06-10T12:03:19;26.70;99.90
28608;DHT22;15802;45.654;13.804;2023-06-10T12:06:01;26.60;99.90
28608;DHT22;15802;45.654;13.804;2023-06-10T12:08:27;26.40;99.90
28608;DHT22;15802;45.654;13.804;2023-06-10T12:10:53;26.30;99.90
28608;DHT22;15802;45.654;13.804;2023-06-10T12:13:18;26.30;99.90
28608;DHT22;15802;45.654;13.804;2023-06-10T12:15:44;26.20;99.90
28608;DHT22;15802;45.654;13.804;2023-06-10T12:18:18;26.10;99.90
28608;DHT22;15802;45.654;13.804;2023-06-10T12:20:44;26.10;99.90
28608;DHT22;15802;45.654;13.804;2023-06-10T12:23:10;26.20;99.90
28608;DHT22;15802;45.654;13.804;2023-06-10T12:25:36;26.30;99.90
28608;DHT22;15802;45.654;13.804;2023-06-10T12:28:03;26.20;99.90
28608;DHT22;15802;45.654;13.804;2023-06-10T12:30:29;26.20;99.90
28608;DHT22;15802;45.654;13.804;2023-06-10T12:32:55;25.90;99.90
28608;DHT22;15802;45.654;13.804;2023-06-10T12:35:22;25.60;99.90
28608;DHT22;15802;45.654;13.804;2023-06-10T12:37:56;25.00;99.90
28608;DHT22;15802;45.654;13.804;2023-06-10T12:40:27;24.50;99.90
28608;DHT22;15802;45.654;13.804;2023-06-10T12:42:54;24.20;99.90
28608;DHT22;15802;45.654;13.804;2023-06-10T12:45:36;24.00;99.90
28608;DHT22;15802;45.654;13.804;2023-06-10T12:48:04;23.80;99.90
28608;DHT22;15802;45.654;13.804;2023-06-10T12:50:31;23.70;99.90
28608;DHT22;15802;45.654;13.804;2023-06-10T12:52:57;23.70;99.90
28608;DHT22;15802;45.654;13.804;2023-06-10T12:55:23;23.60;99.90
28608;DHT22;15802;45.654;13.804;2023-06-10T12:57:49;23.30;99.90
28608;DHT22;15802;45.654;13.804;2023-06-10T13:00:15;23.10;99.90
28608;DHT22;15802;45.654;13.804;2023-06-10T13:02:41;23.00;99.90
28608;DHT22;15802;45.654;13.804;2023-06-10T13:05:07;23.00;99.90
28608;DHT22;15802;45.654;13.804;2023-06-10T13:07:32;23.10;99.90
28608;DHT22;15802;45.654;13.804;2023-06-10T13:10:01;23.00;99.90
28608;DHT22;15802;45.654;13.804;2023-06-10T13:12:27;22.90;99.90
28608;DHT22;15802;45.654;13.804;2023-06-10T13:14:54;22.70;99.90
28608;DHT22;15802;45.654;13.804;2023-06-10T13:17:20;22.70;99.90
28608;DHT22;15802;45.654;13.804;2023-06-10T13:19:46;22.70;99.90
28608;DHT22;15802;45.654;13.804;2023-06-10T13:22:11;22.70;99.90
28608;DHT22;15802;45.654;13.804;2023-06-10T13:24:39;22.70;99.90
28608;DHT22;15802;45.654;13.804;2023-06-10T13:27:04;22.60;99.90
28608;DHT22;15802;45.654;13.804;2023-06-10T13:29:32;22.40;99.90
28608;DHT22;15802;45.654;13.804;2023-06-10T13:31:57;22.10;99.90
28608;DHT22;15802;45.654;13.804;2023-06-10T13:34:23;21.70;99.90
28608;DHT22;15802;45.654;13.804;2023-06-10T13:36:49;21.40;99.90
28608;DHT22;15802;45.654;13.804;2023-06-10T13:39:14;21.30;99.90
28608;DHT22;15802;45.654;13.804;2023-06-10T13:41:41;21.10;99.90
28608;DHT22;15802;45.654;13.804;2023-06-10T13:44:07;20.90;99.90
28608;DHT22;15802;45.654;13.804;2023-06-10T13:46:32;20.80;99.90
28608;DHT22;15802;45.654;13.804;2023-06-10T13:48:58;20.80;99.90
28608;DHT22;15802;45.654;13.804;2023-06-10T13:51:24;20.80;99.90
28608;DHT22;15802;45.654;13.804;2023-06-10T13:53:50;20.80;99.90
28608;DHT22;15802;45.654;13.804;2023-06-10T13:56:17;20.80;99.90
28608;DHT22;15802;45.654;13.804;2023-06-10T13:58:43;20.80;99.90
28608;DHT22;15802;45.654;13.804;2023-06-10T14:01:08;20.80;99.90
28608;DHT22;15802;45.654;13.804;2023-06-10T14:03:34;20.80;99.90
28608;DHT22;15802;45.654;13.804;2023-06-10T14:06:00;20.80;99.90
28608;DHT22;15802;45.654;13.804;2023-06-10T14:08:25;20.80;99.90
28608;DHT22;15802;45.654;13.804;2023-06-10T14:10:51;20.80;99.90
28608;DHT22;15802;45.654;13.804;2023-06-10T14:13:17;20.70;99.90
28608;DHT22;15802;45.654;13.804;2023-06-10T14:15:43;20.70;99.90
28608;DHT22;15802;45.654;13.804;2023-06-10T14:18:08;20.70;99.90
28608;DHT22;15802;45.654;13.804;2023-06-10T14:20:34;20.70;99.90
28608;DHT22;15802;45.654;13.804;2023-06-10T14:22:59;20.80;99.90
28608;DHT22;15802;45.654;13.804;2023-06-10T14:25:25;20.80;99.90
28608;DHT22;15802;45.654;13.804;2023-06-10T14:27:51;20.80;99.90
28608;DHT22;15802;45.654;13.804;2023-06-10T14:30:17;20.90;99.90
28608;DHT22;15802;45.654;13.804;2023-06-10T14:32:42;21.00;99.90
28608;DHT22;15802;45.654;13.804;2023-06-10T14:35:08;21.10;99.90
28608;DHT22;15802;45.654;13.804;2023-06-10T14:37:34;21.30;99.90
28608;DHT22;15802;45.654;13.804;2023-06-10T14:39:59;21.40;99.90
28608;DHT22;15802;45.654;13.804;2023-06-10T14:42:25;21.50;99.90
28608;DHT22;15802;45.654;13.804;2023-06-10T14:44:51;21.50;99.90
28608;DHT22;15802;45.654;13.804;2023-06-10T14:47:19;21.60;99.90
28608;DHT22;15802;45.654;13.804;2023-06-10T14:49:45;21.60;99.90
28608;DHT22;15802;45.654;13.804;2023-06-10T14:52:10;21.60;99.90
28608;DHT22;15802;45.654;13.804;2023-06-10T14:54:36;21.60;99.90
28608;DHT22;15802;45.654;13.804;2023-06-10T14:57:01;21.70;99.90
28608;DHT22;15802;45.654;13.804;2023-06-10T14:59:28;21.80;99.90
28608;DHT22;15802;45.654;13.804;2023-06-10T15:01:53;21.80;99.90
28608;DHT22;15802;45.654;13.804;2023-06-10T15:04:19;21.80;99.90
28608;DHT22;15802;45.654;13.804;2023-06-10T15:06:45;21.90;99.90
28608;DHT22;15802;45.654;13.804;2023-06-10T15:09:13;22.00;99.90
28608;DHT22;15802;45.654;13.804;2023-06-10T15:11:39;22.10;99.90
28608;DHT22;15802;45.654;13.804;2023-06-10T15:14:05;22.30;99.90
28608;DHT22;15802;45.654;13.804;2023-06-10T15:16:31;22.40;99.90
28608;DHT22;15802;45.654;13.804;2023-06-10T15:18:57;22.50;99.90